createdAt,value
2018-02-14T00:01:56.899Z,0.30
2018-02-14T00:04:25.916Z,0.30
2018-02-14T00:06:54.158Z,0.30
2018-02-14T00:09:23.232Z,0.30
2018-02-14T00:11:51.462Z,0.20
2018-02-14T00:14:19.777Z,0.20
2018-02-14T00:16:47.994Z,0.20
2018-02-14T00:19:16.258Z,0.10
2018-02-14T00:21:45.263Z,0.10
2018-02-14T00:24:13.518Z,0.00
2018-02-14T00:26:42.526Z,0.00
2018-02-14T00:29:10.866Z,0.00
2018-02-14T00:31:39.146Z,0.00
2018-02-14T00:34:08.155Z,-0.10
2018-02-14T00:36:36.399Z,-0.10
2018-02-14T00:39:04.710Z,-0.10
2018-02-14T00:41:32.982Z,-0.10
2018-02-14T00:44:01.223Z,-0.20
2018-02-14T00:46:29.500Z,-0.20
2018-02-14T00:48:57.769Z,-0.20
2018-02-14T00:51:26.027Z,-0.30
2018-02-14T00:53:54.303Z,-0.30
2018-02-14T00:56:22.800Z,-0.20
2018-02-14T00:58:51.055Z,-0.30
2018-02-14T01:01:19.293Z,-0.30
2018-02-14T01:03:47.550Z,-0.30
2018-02-14T01:06:16.595Z,-0.30
2018-02-14T01:08:44.852Z,-0.40
2018-02-14T01:11:13.100Z,-0.30
2018-02-14T01:13:41.359Z,-0.30
2018-02-14T01:16:10.385Z,-0.30
2018-02-14T01:18:38.667Z,-0.40
2018-02-14T01:21:06.954Z,-0.30
2018-02-14T01:23:35.211Z,-0.30
2018-02-14T01:26:03.450Z,-0.40
2018-02-14T01:28:32.541Z,-0.40
2018-02-14T01:31:00.774Z,-0.40
2018-02-14T01:33:29.034Z,-0.30
2018-02-14T01:35:57.458Z,-0.30
2018-02-14T01:38:25.670Z,-0.20
2018-02-14T01:40:53.938Z,-0.30
2018-02-14T01:43:22.211Z,-0.30
2018-02-14T01:45:50.479Z,-0.30
2018-02-14T01:48:18.772Z,-0.30
2018-02-14T01:50:47.019Z,-0.30
2018-02-14T01:53:16.059Z,-0.30
2018-02-14T01:55:44.452Z,-0.40
2018-02-14T01:58:12.852Z,-0.30
2018-02-14T02:00:41.106Z,-0.40
2018-02-14T02:03:10.938Z,-0.40
2018-02-14T02:05:39.169Z,-0.40
2018-02-14T02:08:07.427Z,-0.40
2018-02-14T02:10:35.786Z,-0.40
2018-02-14T02:13:04.119Z,-0.40
2018-02-14T02:15:32.370Z,-0.40
2018-02-14T02:18:00.707Z,-0.40
2018-02-14T02:20:33.694Z,-0.40
2018-02-14T02:23:02.731Z,-0.40
2018-02-14T02:25:30.983Z,-0.50
2018-02-14T02:27:59.223Z,-0.40
2018-02-14T02:30:28.252Z,-0.40
2018-02-14T02:32:56.583Z,-0.50
2018-02-14T02:35:24.859Z,-0.40
2018-02-14T02:37:53.164Z,-0.50
2018-02-14T02:40:31.202Z,-0.50
2018-02-14T02:42:59.439Z,-0.50
2018-02-14T02:45:27.713Z,-0.50
2018-02-14T02:47:56.719Z,-0.50
2018-02-14T02:50:25.043Z,-0.50
2018-02-14T02:52:54.119Z,-0.50
2018-02-14T02:55:22.399Z,-0.60
2018-02-14T02:57:50.651Z,-0.50
2018-02-14T03:00:18.923Z,-0.50
2018-02-14T03:02:47.212Z,-0.50
2018-02-14T03:05:15.498Z,-0.50
2018-02-14T03:07:43.758Z,-0.60
2018-02-14T03:10:12.113Z,-0.60
2018-02-14T03:12:40.354Z,-0.60
2018-02-14T03:15:08.593Z,-0.60
2018-02-14T03:17:36.854Z,-0.70
2018-02-14T03:20:05.119Z,-0.70
2018-02-14T03:22:33.386Z,-0.70
2018-02-14T03:25:01.673Z,-0.60
2018-02-14T03:27:29.975Z,-0.70
2018-02-14T03:29:58.218Z,-0.70
2018-02-14T03:32:26.490Z,-0.70
2018-02-14T03:34:54.940Z,-0.70
2018-02-14T03:37:23.358Z,-0.70
2018-02-14T03:39:51.594Z,-0.70
2018-02-14T03:42:20.627Z,-0.70
2018-02-14T03:44:48.973Z,-0.80
2018-02-14T03:47:17.244Z,-0.70
2018-02-14T03:49:46.251Z,-0.70
2018-02-14T03:52:14.786Z,-0.80
2018-02-14T03:54:44.534Z,-0.80
2018-02-14T03:57:12.838Z,-0.80
2018-02-14T03:59:41.078Z,-0.70
2018-02-14T04:02:09.366Z,-0.80
2018-02-14T04:04:37.627Z,-0.80
2018-02-14T04:07:06.638Z,-0.80
2018-02-14T04:09:34.906Z,-0.80
2018-02-14T04:12:03.256Z,-0.80
2018-02-14T04:14:32.287Z,-0.90
2018-02-14T04:17:00.543Z,-0.90
2018-02-14T04:19:29.578Z,-0.90
2018-02-14T04:21:57.825Z,-1.00
2018-02-14T04:24:26.110Z,-0.90
2018-02-14T04:26:54.370Z,-1.00
2018-02-14T04:29:22.643Z,-1.00
2018-02-14T04:31:50.895Z,-1.00
2018-02-14T04:34:19.913Z,-1.00
2018-02-14T04:36:48.146Z,-1.10
2018-02-14T04:39:17.175Z,-1.00
2018-02-14T04:41:45.429Z,-1.10
2018-02-14T04:44:14.478Z,-1.10
2018-02-14T04:46:42.830Z,-1.10
2018-02-14T04:49:11.279Z,-1.10
2018-02-14T04:51:40.360Z,-1.10
2018-02-14T04:54:10.394Z,-1.20
2018-02-14T04:56:39.421Z,-1.20
2018-02-14T04:59:07.675Z,-1.30
2018-02-14T05:01:35.978Z,-1.20
2018-02-14T05:04:04.302Z,-1.30
2018-02-14T05:06:32.579Z,-1.30
2018-02-14T05:09:01.603Z,-1.30
2018-02-14T05:11:29.866Z,-1.40
2018-02-14T05:13:58.118Z,-1.30
2018-02-14T05:16:28.083Z,-1.40
2018-02-14T05:18:56.486Z,-1.50
2018-02-14T05:21:24.791Z,-1.50
2018-02-14T05:23:53.969Z,-1.50
2018-02-14T05:26:22.247Z,-1.60
2018-02-14T05:28:50.471Z,-1.50
2018-02-14T05:31:18.906Z,-1.50
2018-02-14T05:33:47.910Z,-1.50
2018-02-14T05:36:16.179Z,-1.60
2018-02-14T05:38:45.254Z,-1.60
2018-02-14T05:41:14.311Z,-1.60
2018-02-14T05:43:42.577Z,-1.60
2018-02-14T05:46:10.826Z,-1.60
2018-02-14T05:48:39.095Z,-1.60
2018-02-14T05:51:07.350Z,-1.60
2018-02-14T05:53:36.394Z,-1.50
2018-02-14T05:56:04.666Z,-1.60
2018-02-14T05:58:32.982Z,-1.50
2018-02-14T06:01:01.242Z,-1.50
2018-02-14T06:03:29.523Z,-1.50
2018-02-14T06:05:57.814Z,-1.50
2018-02-14T06:08:26.192Z,-1.60
2018-02-14T06:10:54.426Z,-1.60
2018-02-14T06:13:22.694Z,-1.60
2018-02-14T06:15:50.959Z,-1.60
2018-02-14T06:18:19.395Z,-1.60
2018-02-14T06:20:47.839Z,-1.70
2018-02-14T06:23:16.128Z,-1.70
2018-02-14T06:25:44.423Z,-1.80
2018-02-14T06:28:13.459Z,-1.90
2018-02-14T06:30:41.735Z,-1.90
2018-02-14T06:33:10.035Z,-1.90
2018-02-14T06:35:38.314Z,-1.90
2018-02-14T06:38:06.583Z,-1.90
2018-02-14T06:40:35.066Z,-2.00
2018-02-14T06:43:03.318Z,-1.90
2018-02-14T06:45:31.587Z,-2.00
2018-02-14T06:47:59.871Z,-2.00
2018-02-14T06:50:28.166Z,-2.00
2018-02-14T06:52:56.439Z,-1.90
2018-02-14T06:55:24.689Z,-2.00
2018-02-14T06:57:52.942Z,-2.00
2018-02-14T07:00:21.217Z,-2.00
2018-02-14T07:02:49.517Z,-1.90
2018-02-14T07:05:17.795Z,-1.90
2018-02-14T07:07:46.206Z,-1.90
2018-02-14T07:10:14.475Z,-1.90
2018-02-14T07:12:44.245Z,-1.70
2018-02-14T07:15:12.506Z,-1.70
2018-02-14T07:17:40.790Z,-1.50
2018-02-14T07:20:09.246Z,-1.40
2018-02-14T07:22:38.414Z,-1.30
2018-02-14T07:25:06.625Z,-1.40
2018-02-14T07:27:34.907Z,-1.30
2018-02-14T07:30:03.167Z,-1.30
2018-02-14T07:32:31.456Z,-1.20
2018-02-14T07:34:59.742Z,-1.20
2018-02-14T07:37:27.958Z,-1.10
2018-02-14T07:39:58.596Z,-1.10
2018-02-14T07:42:27.266Z,-1.10
2018-02-14T07:44:55.533Z,-1.00
2018-02-14T07:47:23.845Z,-1.00
2018-02-14T07:49:52.094Z,-0.90
2018-02-14T07:52:20.346Z,-0.90
2018-02-14T07:54:48.714Z,-0.80
2018-02-14T07:57:17.086Z,-0.80
2018-02-14T07:59:45.350Z,-0.80
2018-02-14T08:02:13.633Z,-0.70
2018-02-14T08:04:41.918Z,-0.60
2018-02-14T08:07:10.197Z,-0.60
2018-02-14T08:09:38.467Z,-0.50
2018-02-14T08:12:06.714Z,-0.40
2018-02-14T08:14:35.141Z,-0.30
2018-02-14T08:17:03.397Z,-0.20
2018-02-14T08:19:31.653Z,-0.10
2018-02-14T08:21:59.923Z,-0.10
2018-02-14T08:24:28.273Z,0.00
2018-02-14T08:26:56.514Z,0.10
2018-02-14T08:29:24.783Z,0.20
2018-02-14T08:31:53.106Z,0.30
2018-02-14T08:34:22.182Z,0.40
2018-02-14T08:36:50.390Z,0.40
2018-02-14T08:39:18.646Z,0.50
2018-02-14T08:41:46.934Z,0.60
2018-02-14T08:44:15.968Z,0.80
2018-02-14T08:46:44.226Z,0.70
2018-02-14T08:49:12.490Z,0.80
2018-02-14T08:51:40.748Z,0.90
2018-02-14T08:54:09.771Z,1.10
2018-02-14T08:56:38.039Z,1.00
2018-02-14T08:59:06.294Z,1.20
2018-02-14T09:01:34.554Z,1.20
2018-02-14T09:04:03.566Z,1.40
2018-02-14T09:06:31.846Z,1.40
2018-02-14T09:09:00.114Z,1.50
2018-02-14T09:11:28.366Z,1.60
2018-02-14T09:13:56.792Z,1.70
2018-02-14T09:16:25.056Z,1.70
2018-02-14T09:18:53.366Z,1.80
2018-02-14T09:21:21.637Z,1.80
2018-02-14T09:23:50.077Z,1.80
2018-02-14T09:26:18.273Z,1.80
2018-02-14T09:28:46.534Z,1.90
2018-02-14T09:31:14.799Z,1.90
2018-02-14T09:33:43.082Z,2.00
2018-02-14T09:36:11.339Z,2.00
2018-02-14T09:38:39.641Z,2.00
2018-02-14T09:41:08.059Z,2.10
2018-02-14T09:43:37.899Z,2.10
2018-02-14T09:46:06.963Z,2.30
2018-02-14T09:48:35.214Z,2.20
2018-02-14T09:51:03.497Z,2.30
2018-02-14T09:53:31.911Z,2.40
2018-02-14T09:56:00.931Z,2.40
2018-02-14T09:58:29.189Z,2.40
2018-02-14T10:00:57.472Z,2.50
2018-02-14T10:03:25.739Z,2.50
2018-02-14T10:05:54.823Z,2.60
2018-02-14T10:08:23.058Z,2.60
2018-02-14T10:10:51.334Z,2.70
2018-02-14T10:13:19.566Z,2.70
2018-02-14T10:15:47.858Z,2.80
2018-02-14T10:18:16.135Z,2.80
2018-02-14T10:20:44.461Z,2.90
2018-02-14T10:23:12.907Z,2.90
2018-02-14T10:25:41.172Z,2.90
2018-02-14T10:28:09.466Z,3.00
2018-02-14T10:30:37.793Z,3.00
2018-02-14T10:33:06.907Z,3.10
2018-02-14T10:35:35.247Z,3.10
2018-02-14T10:38:03.536Z,3.10
2018-02-14T10:40:31.791Z,3.20
2018-02-14T10:43:00.047Z,3.30
2018-02-14T10:45:28.322Z,3.30
2018-02-14T10:47:56.662Z,3.40
2018-02-14T10:50:25.061Z,3.30
2018-02-14T10:52:53.375Z,3.40
2018-02-14T10:55:22.394Z,3.50
2018-02-14T10:57:50.706Z,3.50
2018-02-14T11:00:18.982Z,3.60
2018-02-14T11:02:47.243Z,3.60
2018-02-14T11:05:15.557Z,3.70
2018-02-14T11:07:44.651Z,3.80
2018-02-14T11:10:12.871Z,3.70
2018-02-14T11:12:41.119Z,3.80
2018-02-14T11:15:10.147Z,3.80
2018-02-14T11:17:38.406Z,3.80
2018-02-14T11:20:06.705Z,3.80
2018-02-14T11:22:35.067Z,4.00
2018-02-14T11:25:03.349Z,4.00
2018-02-14T11:27:31.633Z,4.10
2018-02-14T11:29:59.923Z,4.20
2018-02-14T11:32:28.162Z,4.30
2018-02-14T11:34:56.424Z,4.30
2018-02-14T11:37:24.687Z,4.40
2018-02-14T11:39:53.725Z,4.40
2018-02-14T11:42:22.050Z,4.40
2018-02-14T11:44:51.139Z,4.60
2018-02-14T11:47:19.541Z,4.50
2018-02-14T11:49:47.741Z,4.60
2018-02-14T11:52:15.990Z,4.50
2018-02-14T11:54:44.537Z,4.60
2018-02-14T11:57:12.755Z,4.60
2018-02-14T11:59:41.021Z,4.70
2018-02-14T12:02:09.282Z,4.70
2018-02-14T12:04:38.281Z,4.80
2018-02-14T12:07:06.671Z,4.70
2018-02-14T12:09:34.969Z,4.70
2018-02-14T12:12:03.211Z,4.70
2018-02-14T12:14:31.487Z,4.70
2018-02-14T12:16:59.734Z,4.80
2018-02-14T12:19:28.768Z,4.90
2018-02-14T12:21:56.998Z,4.80
2018-02-14T12:24:26.051Z,4.90
2018-02-14T12:26:54.329Z,4.90
2018-02-14T12:29:22.585Z,5.00
2018-02-14T12:31:50.848Z,5.00
2018-02-14T12:34:19.102Z,5.00
2018-02-14T12:36:48.230Z,5.00
2018-02-14T12:39:16.503Z,5.00
2018-02-14T12:41:44.779Z,5.00
2018-02-14T12:44:13.031Z,5.10
2018-02-14T12:46:42.043Z,5.00
2018-02-14T12:49:10.458Z,5.00
2018-02-14T12:51:40.227Z,5.00
2018-02-14T12:54:08.483Z,5.00
2018-02-14T12:56:37.553Z,5.10
2018-02-14T12:59:05.794Z,5.00
2018-02-14T13:01:34.051Z,5.00
2018-02-14T13:04:02.304Z,5.10
2018-02-14T13:06:31.302Z,5.10
2018-02-14T13:08:59.606Z,5.10
2018-02-14T13:11:27.846Z,5.20
2018-02-14T13:13:56.152Z,5.30
2018-02-14T13:16:24.391Z,5.40
2018-02-14T13:18:53.411Z,5.30
2018-02-14T13:21:21.698Z,5.20
2018-02-14T13:23:50.028Z,5.40
2018-02-14T13:26:19.058Z,5.30
2018-02-14T13:28:47.373Z,5.30
2018-02-14T13:31:17.166Z,5.30
2018-02-14T13:33:45.446Z,5.30
2018-02-14T13:36:13.691Z,5.40
2018-02-14T13:38:41.942Z,5.40
2018-02-14T13:41:10.203Z,5.30
2018-02-14T13:43:39.201Z,5.30
2018-02-14T13:46:08.215Z,5.40
2018-02-14T13:48:36.458Z,5.30
2018-02-14T13:51:05.510Z,5.40
2018-02-14T13:53:33.747Z,5.30
2018-02-14T13:56:02.014Z,5.40
2018-02-14T13:58:30.270Z,5.50
2018-02-14T14:00:59.572Z,5.50
2018-02-14T14:03:27.786Z,5.40
2018-02-14T14:05:56.062Z,5.50
2018-02-14T14:08:24.322Z,5.50
2018-02-14T14:10:52.639Z,5.40
2018-02-14T14:13:21.729Z,5.40
2018-02-14T14:15:49.992Z,5.40
2018-02-14T14:18:18.284Z,5.50
2018-02-14T14:20:46.578Z,5.50
2018-02-14T14:23:14.827Z,5.60
2018-02-14T14:25:43.102Z,5.60
2018-02-14T14:28:11.354Z,5.60
2018-02-14T14:30:39.608Z,5.60
2018-02-14T14:33:07.872Z,5.60
2018-02-14T14:35:36.874Z,5.70
2018-02-14T14:38:05.157Z,5.60
2018-02-14T14:40:33.410Z,5.60
2018-02-14T14:43:02.488Z,5.60
2018-02-14T14:45:30.713Z,5.60
2018-02-14T14:47:58.991Z,5.60
2018-02-14T14:50:27.234Z,5.70
2018-02-14T14:52:55.521Z,5.60
2018-02-14T14:55:23.778Z,5.70
2018-02-14T14:57:52.851Z,5.70
2018-02-14T15:00:21.351Z,5.70
2018-02-14T15:02:49.556Z,5.70
2018-02-14T15:05:17.809Z,5.70
2018-02-14T15:07:46.819Z,5.70
2018-02-14T15:10:15.087Z,5.60
2018-02-14T15:12:43.424Z,5.70
2018-02-14T15:15:11.675Z,5.60
2018-02-14T15:17:39.958Z,5.60
2018-02-14T15:20:08.288Z,5.60
2018-02-14T15:22:36.527Z,5.50
2018-02-14T15:25:04.827Z,5.50
2018-02-14T15:27:33.831Z,5.50
2018-02-14T15:30:02.207Z,5.40
2018-02-14T15:32:30.448Z,5.40
2018-02-14T15:34:58.714Z,5.30
2018-02-14T15:37:26.974Z,5.40
2018-02-14T15:39:55.221Z,5.40
2018-02-14T15:42:23.502Z,5.40
2018-02-14T15:44:51.736Z,5.30
2018-02-14T15:47:20.766Z,5.30
2018-02-14T15:49:49.106Z,5.30
2018-02-14T15:52:17.375Z,5.20
2018-02-14T15:54:46.435Z,5.10
2018-02-14T15:57:14.683Z,5.10
2018-02-14T15:59:42.930Z,5.00
2018-02-14T16:02:11.227Z,5.00
2018-02-14T16:04:39.474Z,5.00
2018-02-14T16:07:07.736Z,4.90
2018-02-14T16:09:35.966Z,4.90
2018-02-14T16:12:04.232Z,4.80
2018-02-14T16:14:32.662Z,4.80
2018-02-14T16:17:01.603Z,4.70
2018-02-14T16:19:29.874Z,4.60
2018-02-14T16:21:58.150Z,4.70
2018-02-14T16:24:26.418Z,4.60
2018-02-14T16:26:54.691Z,4.60
2018-02-14T16:29:22.948Z,4.60
2018-02-14T16:31:51.154Z,4.50
2018-02-14T16:34:19.403Z,4.50
2018-02-14T16:36:47.641Z,4.50
2018-02-14T16:39:15.918Z,4.40
2018-02-14T16:41:44.211Z,4.40
2018-02-14T16:44:13.227Z,4.30
2018-02-14T16:46:41.470Z,4.30
2018-02-14T16:49:10.514Z,4.20
2018-02-14T16:51:38.778Z,4.20
2018-02-14T16:54:07.063Z,4.20
2018-02-14T16:56:35.559Z,4.20
2018-02-14T16:59:03.848Z,4.20
2018-02-14T17:01:32.986Z,4.20
2018-02-14T17:04:01.253Z,4.20
2018-02-14T17:06:29.525Z,4.20
2018-02-14T17:08:58.518Z,4.10
2018-02-14T17:11:26.832Z,4.10
2018-02-14T17:13:55.282Z,4.10
2018-02-14T17:16:23.561Z,4.10
2018-02-14T17:18:51.903Z,4.00
2018-02-14T17:21:20.179Z,4.00
2018-02-14T17:23:48.454Z,4.00
2018-02-14T17:26:16.699Z,4.00
2018-02-14T17:28:45.063Z,4.00
2018-02-14T17:31:14.082Z,4.00
2018-02-14T17:33:43.855Z,4.00
2018-02-14T17:36:12.105Z,4.00
2018-02-14T17:38:40.380Z,4.00
2018-02-14T17:41:09.456Z,3.90
2018-02-14T17:43:37.707Z,3.90
2018-02-14T17:46:05.981Z,3.90
2018-02-14T17:48:34.275Z,3.90
2018-02-14T17:51:03.290Z,3.80
2018-02-14T17:53:31.559Z,3.80
2018-02-14T17:56:00.573Z,3.80
2018-02-14T17:58:29.760Z,3.80
2018-02-14T18:00:58.050Z,3.70
2018-02-14T18:03:26.357Z,3.80
2018-02-14T18:05:54.649Z,3.70
2018-02-14T18:08:22.988Z,3.70
2018-02-14T18:10:51.256Z,3.70
2018-02-14T18:13:19.574Z,3.70
2018-02-14T18:15:47.822Z,3.70
2018-02-14T18:18:16.114Z,3.70
2018-02-14T18:20:44.416Z,3.70
2018-02-14T18:23:13.446Z,3.70
2018-02-14T18:25:41.976Z,3.70
2018-02-14T18:28:10.995Z,3.70
2018-02-14T18:30:39.314Z,3.60
2018-02-14T18:33:07.583Z,3.70
2018-02-14T18:35:35.868Z,3.60
2018-02-14T18:38:04.159Z,3.60
2018-02-14T18:40:32.491Z,3.60
2018-02-14T18:43:00.747Z,3.60
2018-02-14T18:45:29.758Z,3.60
2018-02-14T18:47:58.044Z,3.60
2018-02-14T18:50:26.282Z,3.60
2018-02-14T18:52:55.314Z,3.60
2018-02-14T18:55:23.746Z,3.60
2018-02-14T18:57:52.811Z,3.60
2018-02-14T19:00:21.068Z,3.60
2018-02-14T19:02:49.353Z,3.60
2018-02-14T19:05:17.602Z,3.60
2018-02-14T19:07:45.888Z,3.60
2018-02-14T19:10:14.225Z,3.70
2018-02-14T19:12:42.504Z,3.60
2018-02-14T19:15:10.953Z,3.70
2018-02-14T19:17:39.996Z,3.70
2018-02-14T19:20:09.120Z,3.70
2018-02-14T19:22:37.395Z,3.70
2018-02-14T19:25:05.672Z,3.70
2018-02-14T19:27:34.730Z,3.70
2018-02-14T19:30:03.019Z,3.60
2018-02-14T19:32:32.167Z,3.60
2018-02-14T19:35:01.256Z,3.60
2018-02-14T19:37:29.502Z,3.50
2018-02-14T19:39:57.921Z,3.60
2018-02-14T19:42:26.941Z,3.50
2018-02-14T19:44:55.209Z,3.50
2018-02-14T19:47:23.462Z,3.50
2018-02-14T19:49:52.491Z,3.50
2018-02-14T19:52:20.738Z,3.50
2018-02-14T19:54:49.141Z,3.50
2018-02-14T19:57:17.671Z,3.40
2018-02-14T19:59:46.122Z,3.40
2018-02-14T20:02:14.343Z,3.40
2018-02-14T20:04:42.629Z,3.30
2018-02-14T20:07:10.872Z,3.30
2018-02-14T20:09:39.930Z,3.30
2018-02-14T20:12:08.150Z,3.20
2018-02-14T20:14:37.203Z,3.30
2018-02-14T20:17:05.490Z,3.20
2018-02-14T20:19:33.781Z,3.30
2018-02-14T20:22:02.168Z,3.20
2018-02-14T20:24:30.396Z,3.20
2018-02-14T20:26:58.658Z,3.20
2018-02-14T20:29:26.902Z,3.20
2018-02-14T20:31:55.175Z,3.20
2018-02-14T20:34:23.460Z,3.20
2018-02-14T20:36:51.723Z,3.20
2018-02-14T20:39:20.018Z,3.20
2018-02-14T20:41:48.386Z,3.30
2018-02-14T20:44:16.654Z,3.20
2018-02-14T20:46:45.706Z,3.30
2018-02-14T20:49:13.982Z,3.20
2018-02-14T20:51:42.365Z,3.30
2018-02-14T20:54:10.917Z,3.30
2018-02-14T20:56:39.214Z,3.30
2018-02-14T20:59:07.640Z,3.30
2018-02-14T21:01:35.999Z,3.30
2018-02-14T21:04:04.245Z,3.30
2018-02-14T21:06:33.366Z,3.30
2018-02-14T21:09:01.725Z,3.20
2018-02-14T21:11:30.052Z,3.20
2018-02-14T21:13:58.308Z,3.20
2018-02-14T21:16:26.570Z,3.20
2018-02-14T21:18:55.749Z,3.20
2018-02-14T21:21:24.138Z,3.20
2018-02-14T21:23:53.177Z,3.20
2018-02-14T21:26:21.420Z,3.20
2018-02-14T21:28:50.484Z,3.20
2018-02-14T21:31:18.762Z,3.20
2018-02-14T21:33:47.028Z,3.20
2018-02-14T21:36:15.418Z,3.20
2018-02-14T21:38:43.652Z,3.20
2018-02-14T21:41:11.994Z,3.20
2018-02-14T21:43:42.883Z,3.20
2018-02-14T21:46:11.178Z,3.20
2018-02-14T21:48:40.228Z,3.10
2018-02-14T21:51:08.479Z,3.10
2018-02-14T21:53:36.734Z,3.20
2018-02-14T21:56:05.767Z,3.10
2018-02-14T21:58:34.027Z,3.10
2018-02-14T22:01:02.362Z,3.20
2018-02-14T22:03:30.623Z,3.20
2018-02-14T22:05:58.886Z,3.10
2018-02-14T22:08:27.134Z,3.10
2018-02-14T22:10:55.567Z,3.10
2018-02-14T22:13:23.850Z,3.20
2018-02-14T22:15:52.876Z,3.20
2018-02-14T22:18:21.144Z,3.10
2018-02-14T22:20:49.402Z,3.20
2018-02-14T22:23:17.682Z,3.20
2018-02-14T22:25:45.970Z,3.10
2018-02-14T22:28:14.214Z,3.20
2018-02-14T22:30:43.239Z,3.20
2018-02-14T22:33:11.506Z,3.10
2018-02-14T22:35:39.793Z,3.10
2018-02-14T22:38:08.066Z,3.20
2018-02-14T22:40:36.332Z,3.10
2018-02-14T22:43:04.591Z,3.20
2018-02-14T22:45:33.599Z,3.20
2018-02-14T22:48:01.895Z,3.10
2018-02-14T22:50:30.154Z,3.20
2018-02-14T22:52:58.414Z,3.20
2018-02-14T22:55:26.670Z,3.20
2018-02-14T22:57:55.770Z,3.20
2018-02-14T23:00:24.791Z,3.20
2018-02-14T23:02:53.122Z,3.10
2018-02-14T23:05:21.368Z,3.20
2018-02-14T23:07:49.620Z,3.20
2018-02-14T23:10:17.982Z,3.20
2018-02-14T23:12:46.226Z,3.10
2018-02-14T23:15:14.497Z,3.10
2018-02-14T23:17:42.751Z,3.10
2018-02-14T23:20:11.062Z,3.10
2018-02-14T23:22:40.083Z,3.10
2018-02-14T23:25:08.350Z,3.10
2018-02-14T23:27:36.606Z,3.10
2018-02-14T23:30:05.635Z,3.10
2018-02-14T23:32:33.911Z,3.10
2018-02-14T23:35:02.145Z,3.10
2018-02-14T23:37:31.193Z,3.10
2018-02-14T23:39:59.694Z,3.10
2018-02-14T23:42:28.746Z,3.10
2018-02-14T23:44:57.006Z,3.00
2018-02-14T23:47:25.448Z,3.00
2018-02-14T23:49:53.663Z,3.10
2018-02-14T23:52:21.927Z,3.00
2018-02-14T23:54:50.192Z,3.00
2018-02-14T23:57:19.235Z,3.00
2018-02-14T23:59:47.483Z,3.00
